This is the latest recevied weather packets stored in our database for station/object eb1ayw-13. If no packets are shown the sender has not sent any weather packets the latest 10 day(s).
| Time | Temp. | Humidity | Pressure | Rain* | Wind** | Luminosity | Snow |
|---|---|---|---|---|---|---|---|
| 1778002069 | 36.67° C | 17% | 1003.9 hPa | - | - | - | - |
| 1778001469 | 34.44° C | 19% | 1004.5 hPa | - | - | - | - |
| 1778000876 | 37.22° C | 17% | 1003.8 hPa | - | - | - | - |
| 1777999669 | 38.89° C | 15% | 1003.1 hPa | - | - | - | - |
| 1777999069 | 41.67° C | 13% | 1002.4 hPa | - | - | - | - |
| 1777998469 | 34.44° C | 17% | 1004.4 hPa | - | - | - | - |
| 1777997869 | 35° C | 17% | 1004 hPa | - | - | - | - |
| 1777997270 | 36.67° C | 16% | 1003.5 hPa | - | - | - | - |
| 1777996669 | 38.33° C | 15% | 1003 hPa | - | - | - | - |
| 1777996069 | 37.22° C | 16% | 1003.3 hPa | - | - | - | - |
| 1777995469 | 37.22° C | 15% | 1003.2 hPa | - | - | - | - |
| 1777994870 | 35° C | 17% | 1003.9 hPa | - | - | - | - |
| 1777994269 | 42.78° C | 13% | 1001.8 hPa | - | - | - | - |
| 1777993669 | 36.67° C | 17% | 1003.7 hPa | - | - | - | - |
| 1777993069 | 36.11° C | 17% | 1003.6 hPa | - | - | - | - |
| 1777992469 | 42.78° C | 12% | 1001.9 hPa | - | - | - | - |
| 1777991869 | 42.22° C | 13% | 1001.7 hPa | - | - | - | - |
| 1777991269 | 45° C | 11% | 1001.2 hPa | - | - | - | - |
| 1777990669 | 43.33° C | 12% | 1001.6 hPa | - | - | - | - |
| 1777990069 | 44.44° C | 12% | 1001.4 hPa | - | - | - | - |
| 1777989469 | 41.67° C | 12% | 1002.1 hPa | - | - | - | - |
| 1777988869 | 44.44° C | 11% | 1001.3 hPa | - | - | - | - |
| 1777988268 | 43.89° C | 12% | 1001.6 hPa | - | - | - | - |
| 1777987669 | 43.33° C | 12% | 1001.7 hPa | - | - | - | - |
| 1777987069 | 40° C | 13% | 1002.6 hPa | - | - | - | - |
* Rain since midnight (hover to see other rain measurements)
** Current wind speed in m/s (hover to see current wind gust speed)